Albuquerque, NM

5:08 PM MDT on April 01, 2015 (GMT -0600)
Del Arroyo | | Change Station
CLOSE
Current Station
Personal Weather Station
Location: Albuquerque, NM
Elevation: 5335 ft
Nearby Weather Stations
Active Advisory: Fire Weather Warning

Elev 5335 ft 35.12 °N, 106.56 °W | Updated 3 minutes ago

Partly Cloudy
Partly Cloudy
74.2 °F
Feels Like 75 °F
N
6.0
Wind Variable Wind from SSW
Gusts 7.0 mph

Today
High -- | Low -- °F
--% Chance of Precip.
Yesterday
High -- | Low -- °F
Precip. -- in
6:53 AM 7:27 PM
Waxing Gibbous, 94% visible
Pressure 29.68 in
Visibility 10.0 miles
Clouds Scattered Clouds 12000 ft
Scattered Clouds 18000 ft
Heat Index 75 °F
Dew Point 22 °F
Humidity 14%
Rainfall 0.00 in
Snow Depth Not available.
UV 3 out of 12
Pollen 11.50 out of 12
Air Quality Not available.
Flu Activity Not available.
METAR KABQ 012252Z 26021G28KT 10SM SCT120 SCT180 23/M06 A2987 RMK AO2 PK WND 24028/2250 SLP051 VIRGA ALQDS T02331061

More Conditions Fewer Conditions

Pressure 29.68 in
Visibility 10.0 miles
Clouds Scattered Clouds 12000 ft
Scattered Clouds 18000 ft
Heat Index 75 °F
Dew Point 22 °F
Humidity 14%
Rainfall 0.00 in
Snow Depth Not available.
UV 3 out of 12
Pollen 11.50 out of 12
Air Quality Not available.
Flu Activity Not available.
METAR KABQ 012252Z 26021G28KT 10SM SCT120 SCT180 23/M06 A2987 RMK AO2 PK WND 24028/2250 SLP051 VIRGA ALQDS T02331061

More Conditions Fewer Conditions

10-Day Weather Forecast

Almanac

Astronomy

Apr. 01, 2015 Rise Set
Actual Time
Civil Twilight
Nautical Twilight
Astronomical Twilight
Moon
Length of Visible Light
Length of Day
Tomorrow will be .
, % of the Moon is Illuminated

Today's Extremes

State Highs State Lows

Community

WunderPhotos

Upload Photos

1,810,110 photos uploaded!

WunderBlogs® & News

Nearby

Air Quality

  Air Quality AQ Index Pollutant
Not available.

Snow Depth

Station Depth Elevation

Earthquake Activity

City Distance Mag. Time & Date
Minimum magnitude displayed is 2.5.

Coastal Water Temperatures

Place Temperature

Stations

Nearby Weather Stations

Station Location Temp. Windchill Dew Point Humidity Wind Precip. Elev Updated Type
                   
Fire Weather Warning
Statement as of 6:03 AM MDT on April 01, 2015

... Red flag warning remains in effect from 11 am to 9 PM MDT
Thursday...

A red flag warning remains in effect from 11 am to 9 PM MDT
Thursday.

* Area and timing... this includes the north central mountains
and west Central Highlands below below significant snow pack as
well as the Rio Grande Valley late Thursday morning through
early evening.

* 20 foot winds... westerly 20 to 30 mph with gusts to 45 mph.

* Relative humidity... minimums between 5 and 8 percent lowlands
and 9 to 15 percent Highlands.

* Impacts... any fires that develop will likely spread rapidly.
Outdoor burning is not recommended.

Precautionary/preparedness actions...

Please advise the appropriate officials or fire crews in the
field of this red flag warning.